createdAt,value
2023-04-02T00:01:24.826Z,7.60
2023-04-02T00:04:15.564Z,7.60
2023-04-02T00:06:43.189Z,7.60
2023-04-02T00:09:30.551Z,7.50
2023-04-02T00:11:58.426Z,7.50
2023-04-02T00:14:29.284Z,7.60
2023-04-02T00:16:58.335Z,7.50
2023-04-02T00:19:39.225Z,7.40
2023-04-02T00:22:14.502Z,7.50
2023-04-02T00:24:41.922Z,7.40
2023-04-02T00:27:12.143Z,7.40
2023-04-02T00:29:48.517Z,7.30
2023-04-02T00:32:24.647Z,7.30
2023-04-02T00:34:51.818Z,7.30
2023-04-02T00:37:20.753Z,7.30
2023-04-02T00:39:48.521Z,7.20
2023-04-02T00:42:15.724Z,7.30
2023-04-02T00:44:45.267Z,7.30
2023-04-02T00:47:18.954Z,7.20
2023-04-02T00:49:46.302Z,7.20
2023-04-02T00:52:15.914Z,7.20
2023-04-02T00:54:47.825Z,7.20
2023-04-02T00:57:18.056Z,7.30
2023-04-02T00:59:55.631Z,7.30
2023-04-02T01:02:30.480Z,7.40
2023-04-02T01:04:59.736Z,7.30
2023-04-02T01:07:44.542Z,7.30
2023-04-02T01:10:36.175Z,7.40
2023-04-02T01:13:11.984Z,7.30
2023-04-02T01:15:42.391Z,7.30
2023-04-02T01:18:21.500Z,7.30
2023-04-02T01:21:07.445Z,7.30
2023-04-02T01:23:44.025Z,7.40
2023-04-02T01:26:18.909Z,7.40
2023-04-02T01:29:01.713Z,7.40
2023-04-02T01:31:29.962Z,7.40
2023-04-02T01:33:57.261Z,7.30
2023-04-02T01:36:30.547Z,7.30
2023-04-02T01:39:05.917Z,7.30
2023-04-02T01:41:36.432Z,7.30
2023-04-02T01:44:08.491Z,7.30
2023-04-02T01:46:40.819Z,7.40
2023-04-02T01:49:12.842Z,7.40
2023-04-02T01:51:43.209Z,7.40
2023-04-02T01:54:11.177Z,7.40
2023-04-02T01:56:38.227Z,7.40
2023-04-02T01:59:10.508Z,7.40
2023-04-02T02:01:43.223Z,7.30
2023-04-02T02:04:12.525Z,7.30
2023-04-02T02:06:39.938Z,7.30
2023-04-02T02:09:12.657Z,7.30
2023-04-02T02:11:39.613Z,7.30
2023-04-02T02:14:14.895Z,7.30
2023-04-02T02:16:42.170Z,7.30
2023-04-02T02:19:20.068Z,7.30
2023-04-02T02:21:50.109Z,7.40
2023-04-02T02:24:21.578Z,7.30
2023-04-02T02:27:03.649Z,7.40
2023-04-02T02:29:37.722Z,7.30
2023-04-02T02:32:05.771Z,7.30
2023-04-02T02:34:38.032Z,7.30
2023-04-02T02:37:08.982Z,7.40
2023-04-02T02:39:40.615Z,7.30
2023-04-02T02:42:13.036Z,7.30
2023-04-02T02:44:44.326Z,7.30
2023-04-02T02:47:14.863Z,7.40
2023-04-02T02:49:45.197Z,7.40
2023-04-02T02:52:17.067Z,7.40
2023-04-02T02:54:46.997Z,7.40
2023-04-02T02:57:19.033Z,7.40
2023-04-02T02:59:48.282Z,7.40
2023-04-02T03:02:15.982Z,7.40
2023-04-02T03:04:47.880Z,7.40
2023-04-02T03:07:16.707Z,7.30
2023-04-02T03:09:51.753Z,7.40
2023-04-02T03:12:36.642Z,7.30
2023-04-02T03:15:12.331Z,7.30
2023-04-02T03:17:45.391Z,7.30
2023-04-02T03:20:17.415Z,7.30
2023-04-02T03:22:51.833Z,7.30
2023-04-02T03:25:26.575Z,7.30
2023-04-02T03:27:59.248Z,7.30
2023-04-02T03:30:31.825Z,7.30
2023-04-02T03:33:03.288Z,7.20
2023-04-02T03:35:36.102Z,7.20
2023-04-02T03:38:07.400Z,7.20
2023-04-02T03:40:39.083Z,7.20
2023-04-02T03:43:15.167Z,7.10
2023-04-02T03:45:48.222Z,7.10
2023-04-02T03:48:19.241Z,7.20
2023-04-02T03:50:52.028Z,7.20
2023-04-02T03:53:22.705Z,7.20
2023-04-02T03:55:49.973Z,7.20
2023-04-02T03:58:23.378Z,7.20
2023-04-02T04:00:55.603Z,7.10
2023-04-02T04:03:29.012Z,7.10
2023-04-02T04:05:59.689Z,7.10
2023-04-02T04:08:32.970Z,7.10
2023-04-02T04:11:07.518Z,7.10
2023-04-02T04:13:42.510Z,7.10
2023-04-02T04:16:14.797Z,7.10
2023-04-02T04:18:47.135Z,7.00
2023-04-02T04:21:20.245Z,7.10
2023-04-02T04:23:50.957Z,7.10
2023-04-02T04:26:22.149Z,7.10
2023-04-02T04:28:55.902Z,7.10
2023-04-02T04:31:30.138Z,7.00
2023-04-02T04:34:00.233Z,7.00
2023-04-02T04:36:31.482Z,7.00
2023-04-02T04:39:04.665Z,6.90
2023-04-02T04:41:35.449Z,6.90
2023-04-02T04:44:10.126Z,6.90
2023-04-02T04:46:42.447Z,6.90
2023-04-02T04:49:14.418Z,6.90
2023-04-02T04:51:44.989Z,6.90
2023-04-02T04:54:13.949Z,6.90
2023-04-02T04:56:44.881Z,6.90
2023-04-02T04:59:17.731Z,6.90
2023-04-02T05:01:52.285Z,6.80
2023-04-02T05:04:24.699Z,6.80
2023-04-02T05:06:55.678Z,6.80
2023-04-02T05:09:28.951Z,6.80
2023-04-02T05:12:05.133Z,6.80
2023-04-02T05:14:36.527Z,6.80
2023-04-02T05:17:09.937Z,6.80
2023-04-02T05:19:41.999Z,6.80
2023-04-02T05:22:19.915Z,6.80
2023-04-02T05:24:54.619Z,6.80
2023-04-02T05:27:33.493Z,6.80
2023-04-02T05:30:07.024Z,6.80
2023-04-02T05:32:40.616Z,6.80
2023-04-02T05:35:16.036Z,6.80
2023-04-02T05:37:43.095Z,6.90
2023-04-02T05:40:15.135Z,6.90
2023-04-02T05:42:45.524Z,6.90
2023-04-02T05:45:22.908Z,6.90
2023-04-02T05:47:54.238Z,6.90
2023-04-02T05:50:26.731Z,6.90
2023-04-02T05:52:58.706Z,6.90
2023-04-02T05:55:47.021Z,7.00
2023-04-02T06:01:03.890Z,6.90
2023-04-02T06:03:40.702Z,7.00
2023-04-02T06:06:17.345Z,7.00
2023-04-02T06:08:51.840Z,7.00
2023-04-02T06:11:22.937Z,7.10
2023-04-02T06:13:49.793Z,7.10
2023-04-02T06:16:17.075Z,7.10
2023-04-02T06:18:45.776Z,7.20
2023-04-02T06:21:16.333Z,7.20
2023-04-02T06:23:47.026Z,7.20
2023-04-02T06:26:21.108Z,7.20
2023-04-02T06:28:48.823Z,7.20
2023-04-02T06:31:23.563Z,7.30
2023-04-02T06:33:51.740Z,7.40
2023-04-02T06:36:19.800Z,7.40
2023-04-02T06:38:48.989Z,7.40
2023-04-02T06:41:20.193Z,7.40
2023-04-02T06:43:50.718Z,7.40
2023-04-02T06:46:23.275Z,7.50
2023-04-02T06:48:56.555Z,7.50
2023-04-02T06:51:25.873Z,7.50
2023-04-02T06:53:52.807Z,7.60
2023-04-02T06:56:27.697Z,7.70
2023-04-02T06:58:54.500Z,7.70
2023-04-02T07:01:25.422Z,7.80
2023-04-02T07:03:54.411Z,7.90
2023-04-02T07:06:22.459Z,7.90
2023-04-02T07:08:49.304Z,7.80
2023-04-02T07:11:19.418Z,7.90
2023-04-02T07:13:48.280Z,7.90
2023-04-02T07:16:16.946Z,8.00
2023-04-02T07:18:44.249Z,7.90
2023-04-02T07:21:12.476Z,8.00
2023-04-02T07:23:39.355Z,8.00
2023-04-02T07:26:08.877Z,8.10
2023-04-02T07:28:35.693Z,8.30
2023-04-02T07:31:02.538Z,8.40
2023-04-02T07:33:30.779Z,8.50
2023-04-02T07:35:58.537Z,8.60
2023-04-02T07:38:26.783Z,8.60
2023-04-02T07:40:53.552Z,8.80
2023-04-02T07:43:20.989Z,8.90
2023-04-02T07:45:47.765Z,8.90
2023-04-02T07:48:14.726Z,9.00
2023-04-02T07:50:41.857Z,9.00
2023-04-02T07:53:21.504Z,9.00
2023-04-02T07:55:53.435Z,9.10
2023-04-02T07:58:20.215Z,9.00
2023-04-02T08:00:47.179Z,9.10
2023-04-02T08:03:14.158Z,9.30
2023-04-02T08:05:40.986Z,9.40
2023-04-02T08:08:07.802Z,9.50
2023-04-02T08:10:34.662Z,9.70
2023-04-02T08:13:02.772Z,9.60
2023-04-02T08:15:29.594Z,9.60
2023-04-02T08:17:56.451Z,9.70
2023-04-02T08:20:23.378Z,9.70
2023-04-02T08:22:50.634Z,9.80
2023-04-02T08:25:17.907Z,9.80
2023-04-02T08:27:47.120Z,9.70
2023-04-02T08:30:17.044Z,9.70
2023-04-02T08:32:43.949Z,9.70
2023-04-02T08:35:16.381Z,9.80
2023-04-02T08:37:43.607Z,10.00
2023-04-02T08:40:21.454Z,10.20
2023-04-02T08:43:01.128Z,10.30
2023-04-02T08:45:38.314Z,10.50
2023-04-02T08:48:07.687Z,10.50
2023-04-02T08:50:37.277Z,10.40
2023-04-02T08:53:06.732Z,10.40
2023-04-02T08:55:38.688Z,10.40
2023-04-02T08:58:14.139Z,10.50
2023-04-02T09:00:44.415Z,10.60
2023-04-02T09:03:17.557Z,10.60
2023-04-02T09:05:46.298Z,10.60
2023-04-02T09:08:18.397Z,10.80
2023-04-02T09:10:51.684Z,11.00
2023-04-02T09:13:24.191Z,11.00
2023-04-02T09:15:56.173Z,10.80
2023-04-02T09:18:23.043Z,10.70
2023-04-02T09:20:50.055Z,10.70
2023-04-02T09:23:19.457Z,10.80
2023-04-02T09:26:01.348Z,10.90
2023-04-02T09:28:30.824Z,11.00
2023-04-02T09:31:09.128Z,11.10
2023-04-02T09:33:47.438Z,11.00
2023-04-02T09:36:25.871Z,10.90
2023-04-02T09:38:59.150Z,10.90
2023-04-02T09:41:28.799Z,10.90
2023-04-02T09:44:18.326Z,10.80
2023-04-02T09:46:54.667Z,10.70
2023-04-02T09:49:24.237Z,10.90
2023-04-02T09:52:19.643Z,11.20
2023-04-02T09:54:47.206Z,11.40
2023-04-02T09:57:24.215Z,11.50
2023-04-02T10:00:14.617Z,11.60
2023-04-02T10:03:03.208Z,11.90
2023-04-02T10:05:40.532Z,12.10
2023-04-02T10:08:18.618Z,12.00
2023-04-02T10:10:49.637Z,11.70
2023-04-02T10:13:22.960Z,11.60
2023-04-02T10:15:55.835Z,11.60
2023-04-02T10:18:36.146Z,11.50
2023-04-02T10:21:04.734Z,11.40
2023-04-02T10:23:36.343Z,11.40
2023-04-02T10:26:26.786Z,11.40
2023-04-02T10:29:12.976Z,11.50
2023-04-02T10:31:49.405Z,11.70
2023-04-02T10:34:23.753Z,11.80
2023-04-02T10:37:00.432Z,11.80
2023-04-02T10:39:34.537Z,12.00
2023-04-02T10:42:11.088Z,12.10
2023-04-02T10:44:49.537Z,12.20
2023-04-02T10:47:30.115Z,12.40
2023-04-02T10:50:13.533Z,12.60
2023-04-02T10:52:46.463Z,12.80
2023-04-02T10:55:17.656Z,13.20
2023-04-02T10:57:45.624Z,13.40
2023-04-02T11:00:22.476Z,13.40
2023-04-02T11:02:54.554Z,13.50
2023-04-02T11:05:29.070Z,13.80
2023-04-02T11:08:00.541Z,14.10
2023-04-02T11:10:31.486Z,14.30
2023-04-02T11:13:02.540Z,14.50
2023-04-02T11:15:30.303Z,14.10
2023-04-02T11:17:57.775Z,13.80
2023-04-02T11:21:03.046Z,13.70
2023-04-02T11:23:33.104Z,13.40
2023-04-02T11:26:40.314Z,13.20
2023-04-02T11:29:15.906Z,13.00
2023-04-02T11:31:44.459Z,12.90
2023-04-02T11:34:35.994Z,12.80
2023-04-02T11:37:09.270Z,12.60
2023-04-02T11:39:50.981Z,12.50
2023-04-02T11:42:31.991Z,12.60
2023-04-02T11:45:21.591Z,12.90
2023-04-02T11:48:18.080Z,13.20
2023-04-02T11:50:46.247Z,13.60
2023-04-02T11:53:22.624Z,13.90
2023-04-02T11:56:18.538Z,14.20
2023-04-02T11:59:04.500Z,14.10
2023-04-02T12:01:45.352Z,13.90
2023-04-02T12:04:37.236Z,14.10
2023-04-02T12:07:28.481Z,14.40
2023-04-02T12:09:59.129Z,14.60
2023-04-02T12:12:28.937Z,14.80
2023-04-02T12:14:57.501Z,15.00
2023-04-02T12:17:30.213Z,15.10
2023-04-02T12:19:59.249Z,15.00
2023-04-02T12:22:29.412Z,14.60
2023-04-02T12:25:00.136Z,14.30
2023-04-02T12:27:29.103Z,14.30
2023-04-02T12:30:10.161Z,14.20
2023-04-02T12:32:37.089Z,14.30
2023-04-02T12:35:05.330Z,14.50
2023-04-02T12:37:32.954Z,14.80
2023-04-02T12:40:02.886Z,15.30
2023-04-02T12:42:32.211Z,15.40
2023-04-02T12:44:59.202Z,15.00
2023-04-02T12:47:27.262Z,14.40
2023-04-02T12:49:55.928Z,13.90
2023-04-02T12:52:25.130Z,13.40
2023-04-02T12:54:53.698Z,12.90
2023-04-02T12:57:30.337Z,12.60
2023-04-02T12:59:57.887Z,12.40
2023-04-02T13:02:26.367Z,12.20
2023-04-02T13:04:54.895Z,12.10
2023-04-02T13:07:23.881Z,11.80
2023-04-02T13:09:52.669Z,11.70
2023-04-02T13:12:32.554Z,11.50
2023-04-02T13:15:01.679Z,11.50
2023-04-02T13:17:43.521Z,11.60
2023-04-02T13:20:34.304Z,11.60
2023-04-02T13:23:22.500Z,11.70
2023-04-02T13:25:50.018Z,11.80
2023-04-02T13:28:18.258Z,11.80
2023-04-02T13:30:45.579Z,11.70
2023-04-02T13:33:12.753Z,11.60
2023-04-02T13:35:39.768Z,11.50
2023-04-02T13:38:06.759Z,11.30
2023-04-02T13:40:33.970Z,11.10
2023-04-02T13:43:01.223Z,11.00
2023-04-02T13:45:32.947Z,10.90
2023-04-02T13:48:00.501Z,10.90
2023-04-02T13:50:29.043Z,10.80
2023-04-02T13:52:58.685Z,10.80
2023-04-02T13:55:29.494Z,10.90
2023-04-02T13:57:57.065Z,11.00
2023-04-02T14:00:24.095Z,11.10
2023-04-02T14:02:59.305Z,11.30
2023-04-02T14:05:35.457Z,11.30
2023-04-02T14:08:08.822Z,11.60
2023-04-02T14:10:51.356Z,11.90
2023-04-02T14:13:30.027Z,12.30
2023-04-02T14:16:13.171Z,12.70
2023-04-02T14:18:55.453Z,12.40
2023-04-02T14:21:35.671Z,11.80
2023-04-02T14:24:15.750Z,11.10
2023-04-02T14:26:59.254Z,10.50
2023-04-02T14:29:34.808Z,10.00
2023-04-02T14:32:06.078Z,9.70
2023-04-02T14:34:45.003Z,9.60
2023-04-02T14:37:19.968Z,9.50
2023-04-02T14:39:57.308Z,9.50
2023-04-02T14:42:30.939Z,9.70
2023-04-02T14:45:03.316Z,9.80
2023-04-02T14:47:37.169Z,9.90
2023-04-02T14:50:12.113Z,9.90
2023-04-02T14:52:42.027Z,9.70
2023-04-02T14:55:18.658Z,9.60
2023-04-02T14:57:49.214Z,9.60
2023-04-02T15:00:26.871Z,9.50
2023-04-02T15:02:59.081Z,9.50
2023-04-02T15:05:35.556Z,9.50
2023-04-02T15:08:06.309Z,9.60
2023-04-02T15:10:36.691Z,9.70
2023-04-02T15:13:12.058Z,9.80
2023-04-02T15:15:42.856Z,10.00
2023-04-02T15:18:13.130Z,10.30
2023-04-02T15:20:49.760Z,10.40
2023-04-02T15:23:28.650Z,10.40
2023-04-02T15:26:06.134Z,10.50
2023-04-02T15:28:39.584Z,10.70
2023-04-02T15:31:13.046Z,10.80
2023-04-02T15:33:44.181Z,10.90
2023-04-02T15:36:37.278Z,10.90
2023-04-02T15:41:39.617Z,10.90
2023-04-02T15:44:10.183Z,10.80
2023-04-02T15:46:45.099Z,10.70
2023-04-02T15:49:29.360Z,10.50
2023-04-02T15:52:07.865Z,10.30
2023-04-02T15:54:55.854Z,10.00
2023-04-02T15:57:44.555Z,9.70
2023-04-02T16:00:20.346Z,9.50
2023-04-02T16:03:05.092Z,9.30
2023-04-02T16:05:42.192Z,9.30
2023-04-02T16:08:38.725Z,9.30
2023-04-02T16:11:09.967Z,9.20
2023-04-02T16:13:38.875Z,9.10
2023-04-02T16:16:09.014Z,9.00
2023-04-02T16:18:47.188Z,9.00
2023-04-02T16:21:20.177Z,9.00
2023-04-02T16:23:49.129Z,8.80
2023-04-02T16:26:34.242Z,8.80
2023-04-02T16:29:16.879Z,8.70
2023-04-02T16:31:54.040Z,8.60
2023-04-02T16:34:32.224Z,8.50
2023-04-02T16:37:06.703Z,8.50
2023-04-02T16:39:41.069Z,8.40
2023-04-02T16:42:17.176Z,8.40
2023-04-02T16:44:54.714Z,8.40
2023-04-02T16:47:42.756Z,8.40
2023-04-02T16:50:18.709Z,8.40
2023-04-02T16:52:52.060Z,8.40
2023-04-02T16:55:41.024Z,8.40
2023-04-02T16:58:22.817Z,8.50
2023-04-02T17:00:55.828Z,8.50
2023-04-02T17:03:48.137Z,8.50
2023-04-02T17:06:26.014Z,8.60
2023-04-02T17:09:00.382Z,8.60
2023-04-02T17:11:36.557Z,8.50
2023-04-02T17:14:05.910Z,8.40
2023-04-02T17:16:38.194Z,8.20
2023-04-02T17:19:10.526Z,8.00
2023-04-02T17:21:39.375Z,7.80
2023-04-02T17:24:15.682Z,7.60
2023-04-02T17:26:47.117Z,7.60
2023-04-02T17:29:19.122Z,7.40
2023-04-02T17:31:46.831Z,7.30
2023-04-02T17:34:15.662Z,7.30
2023-04-02T17:36:51.078Z,7.20
2023-04-02T17:39:22.717Z,7.10
2023-04-02T17:41:57.571Z,7.00
2023-04-02T17:44:38.528Z,7.00
2023-04-02T17:47:12.456Z,6.90
2023-04-02T17:49:47.524Z,6.90
2023-04-02T17:52:19.893Z,6.90
2023-04-02T17:54:57.621Z,6.90
2023-04-02T17:57:37.433Z,6.90
2023-04-02T18:00:21.161Z,7.00
2023-04-02T18:03:19.235Z,6.90
2023-04-02T18:05:54.267Z,6.80
2023-04-02T18:08:26.761Z,6.80
2023-04-02T18:11:05.994Z,6.70
2023-04-02T18:13:36.367Z,6.60
2023-04-02T18:16:40.655Z,6.60
2023-04-02T18:19:14.996Z,6.70
2023-04-02T18:21:50.083Z,6.60
2023-04-02T18:24:41.134Z,6.70
2023-04-02T18:27:20.269Z,6.60
2023-04-02T18:29:56.407Z,6.60
2023-04-02T18:32:48.830Z,6.60
2023-04-02T18:35:23.903Z,6.50
2023-04-02T18:38:08.916Z,6.40
2023-04-02T18:40:43.261Z,6.40
2023-04-02T18:43:24.507Z,6.40
2023-04-02T18:45:59.323Z,6.30
2023-04-02T18:48:39.470Z,6.30
2023-04-02T18:51:13.939Z,6.20
2023-04-02T18:53:42.192Z,6.20
2023-04-02T18:56:13.962Z,6.10
2023-04-02T18:58:46.147Z,6.00
2023-04-02T19:01:19.376Z,6.00
2023-04-02T19:03:50.388Z,5.90
2023-04-02T19:06:20.905Z,6.00
2023-04-02T19:08:50.902Z,6.00
2023-04-02T19:11:19.802Z,6.00
2023-04-02T19:13:46.608Z,6.00
2023-04-02T19:16:39.704Z,6.00
2023-04-02T19:19:14.397Z,5.90
2023-04-02T19:21:56.372Z,5.80
2023-04-02T19:24:35.612Z,5.80
2023-04-02T19:27:07.913Z,5.80
2023-04-02T19:29:49.052Z,5.70
2023-04-02T19:32:27.999Z,5.60
2023-04-02T19:35:01.401Z,5.60
2023-04-02T19:37:36.581Z,5.50
2023-04-02T19:40:16.782Z,5.50
2023-04-02T19:42:45.964Z,5.50
2023-04-02T19:45:35.519Z,5.50
2023-04-02T19:48:11.555Z,5.50
2023-04-02T19:50:38.495Z,5.50
2023-04-02T19:53:05.269Z,5.40
2023-04-02T19:55:32.196Z,5.40
2023-04-02T19:58:08.813Z,5.40
2023-04-02T20:00:39.924Z,5.40
2023-04-02T20:03:08.044Z,5.40
2023-04-02T20:05:35.020Z,5.30
2023-04-02T20:08:02.084Z,5.20
2023-04-02T20:10:28.958Z,5.10
2023-04-02T20:12:55.789Z,5.10
2023-04-02T20:15:22.510Z,5.10
2023-04-02T20:17:49.308Z,5.00
2023-04-02T20:20:17.584Z,5.00
2023-04-02T20:22:44.454Z,4.90
2023-04-02T20:25:11.299Z,4.90
2023-04-02T20:27:38.037Z,4.90
2023-04-02T20:30:05.766Z,4.80
2023-04-02T20:32:32.633Z,4.80
2023-04-02T20:34:59.497Z,4.70
2023-04-02T20:37:27.656Z,4.70
2023-04-02T20:39:54.447Z,4.60
2023-04-02T20:42:21.208Z,4.60
2023-04-02T20:44:48.044Z,4.50
2023-04-02T20:47:14.904Z,4.50
2023-04-02T20:49:41.783Z,4.50
2023-04-02T20:52:09.154Z,4.40
2023-04-02T20:54:37.319Z,4.30
2023-04-02T20:57:05.590Z,4.30
2023-04-02T20:59:32.375Z,4.20
2023-04-02T21:01:59.251Z,4.20
2023-04-02T21:04:27.561Z,4.20
2023-04-02T21:06:54.358Z,4.10
2023-04-02T21:09:21.189Z,4.10
2023-04-02T21:11:49.384Z,4.10
2023-04-02T21:14:17.991Z,4.10
2023-04-02T21:16:44.936Z,4.10
2023-04-02T21:19:11.806Z,4.10
2023-04-02T21:21:39.355Z,4.10
2023-04-02T21:24:07.831Z,4.10
2023-04-02T21:26:36.224Z,4.00
2023-04-02T21:29:05.175Z,4.10
2023-04-02T21:31:35.492Z,4.10
2023-04-02T21:34:02.516Z,4.10
2023-04-02T21:36:30.584Z,4.10
2023-04-02T21:38:59.260Z,4.10
2023-04-02T21:41:27.592Z,4.10
2023-04-02T21:43:55.619Z,4.10
2023-04-02T21:46:25.830Z,4.00
2023-04-02T21:48:54.172Z,4.00
2023-04-02T21:51:23.101Z,4.00
2023-04-02T21:53:50.438Z,4.00
2023-04-02T21:56:19.583Z,4.00
2023-04-02T21:58:47.181Z,4.00
2023-04-02T22:01:26.597Z,3.90
2023-04-02T22:03:56.990Z,3.80
2023-04-02T22:06:25.619Z,3.70
2023-04-02T22:08:55.109Z,3.50
2023-04-02T22:11:23.715Z,3.30
2023-04-02T22:13:50.925Z,3.30
2023-04-02T22:16:19.199Z,3.20
2023-04-02T22:18:46.175Z,3.20
2023-04-02T22:21:15.661Z,3.20
2023-04-02T22:23:43.635Z,3.10
2023-04-02T22:26:11.576Z,3.00
2023-04-02T22:28:39.221Z,3.00
2023-04-02T22:31:08.863Z,2.90
2023-04-02T22:33:35.938Z,2.90
2023-04-02T22:36:03.290Z,2.80
2023-04-02T22:38:31.702Z,2.80
2023-04-02T22:41:06.102Z,2.70
2023-04-02T22:43:33.227Z,2.70
2023-04-02T22:46:00.325Z,2.70
2023-04-02T22:48:27.245Z,2.70
2023-04-02T22:50:54.301Z,2.60
2023-04-02T22:53:21.715Z,2.70
2023-04-02T22:55:49.998Z,2.70
2023-04-02T22:58:16.802Z,2.60
2023-04-02T23:00:43.867Z,2.60
2023-04-02T23:03:10.642Z,2.60
2023-04-02T23:05:37.575Z,2.60
2023-04-02T23:08:05.239Z,2.70
2023-04-02T23:10:32.112Z,2.70
2023-04-02T23:13:00.193Z,2.70
2023-04-02T23:15:26.981Z,2.70
2023-04-02T23:17:53.807Z,2.70
2023-04-02T23:20:20.590Z,2.70
2023-04-02T23:22:47.350Z,2.70
2023-04-02T23:25:14.141Z,2.70
2023-04-02T23:27:40.957Z,2.70
2023-04-02T23:30:09.657Z,2.60
2023-04-02T23:32:36.402Z,2.60
2023-04-02T23:35:03.295Z,2.60
2023-04-02T23:37:30.033Z,2.60
2023-04-02T23:39:56.810Z,2.60
2023-04-02T23:42:23.572Z,2.50
2023-04-02T23:44:50.365Z,2.50
2023-04-02T23:47:18.472Z,2.50
2023-04-02T23:49:45.264Z,2.50
2023-04-02T23:52:12.019Z,2.50
2023-04-02T23:54:38.782Z,2.50
2023-04-02T23:57:05.672Z,2.50
2023-04-02T23:59:32.538Z,2.60
